This is the latest recevied weather packets stored in our database for station/object VK3BYD-3. If no packets are shown the sender has not sent any weather packets the latest 10 day(s).
| Time | Temp. | Humidity | Pressure | Rain* | Wind** | Luminosity | Snow |
|---|---|---|---|---|---|---|---|
| 1778228499 | 12.78° C | 77% | 1021.7 hPa | 0 mm | - | - | - |
| 1778227596 | 12.78° C | 78% | 1021.7 hPa | 0 mm | - | - | - |
| 1778226693 | 13.33° C | 76% | 1021.7 hPa | 0 mm | - | - | - |
| 1778225792 | 13.33° C | 75% | 1021.5 hPa | 0 mm | - | - | - |
| 1778224890 | 13.89° C | 73% | 1021.3 hPa | 0 mm | - | - | - |
| 1778223990 | 14.44° C | 72% | 1021 hPa | 0 mm | - | - | - |
| 1778223090 | 15° C | 70% | 1021 hPa | 0 mm | - | - | - |
| 1778222190 | 16.11° C | 68% | 1020.9 hPa | 0 mm | - | - | - |
| 1778221290 | 16.67° C | 66% | 1020.7 hPa | 0 mm | - | - | - |
| 1778220390 | 16.67° C | 68% | 1020.7 hPa | 0 mm | - | - | - |
| 1778219490 | 16.67° C | 69% | 1020.6 hPa | 0 mm | - | - | - |
| 1778218590 | 16.67° C | 67% | 1020.7 hPa | 0 mm | - | - | - |
| 1778217690 | 16.67° C | 66% | 1020.6 hPa | 0 mm | - | - | - |
| 1778216789 | 17.78° C | 64% | 1020.3 hPa | 0 mm | - | - | - |
| 1778215890 | 18.33° C | 64% | 1020.2 hPa | 0 mm | - | - | - |
| 1778214990 | 18.33° C | 65% | 1020 hPa | 0 mm | - | - | - |
| 1778214090 | 17.78° C | 66% | 1020.1 hPa | 0 mm | - | - | - |
| 1778213187 | 17.22° C | 66% | 1020 hPa | 0 mm | - | - | - |
| 1778212288 | 17.22° C | 65% | 1020.2 hPa | 0 mm | - | - | - |
| 1778211387 | 17.22° C | 68% | 1020.2 hPa | 0 mm | - | - | - |
| 1778210489 | 17.22° C | 70% | 1020.5 hPa | 0 mm | - | - | - |
| 1778209588 | 17.22° C | 68% | 1020.5 hPa | 0 mm | - | - | - |
| 1778208693 | 16.67° C | 70% | 1020.7 hPa | 0 mm | - | - | - |
| 1778207791 | 16.67° C | 71% | 1020.7 hPa | 0 mm | - | - | - |
| 1778206889 | 17.22° C | 72% | 1020.8 hPa | 0 mm | - | - | - |
* Rain latest hour (hover to see other rain measurements)
** Current wind speed in m/s (hover to see current wind gust speed)